sensor_id;sensor_type;location;lat;lon;timestamp;pressure;altitude;pressure_sealevel;temperature;humidity
53550;BME280;67273;52.914;-0.982;2023-05-12T00:00:49;101850.91;;;20.27;53.86
53550;BME280;67273;52.914;-0.982;2023-05-12T00:03:15;101847.56;;;20.25;54.14
53550;BME280;67273;52.914;-0.982;2023-05-12T00:05:41;101846.53;;;20.26;53.87
53550;BME280;67273;52.914;-0.982;2023-05-12T00:08:07;101855.75;;;20.25;54.00
53550;BME280;67273;52.914;-0.982;2023-05-12T00:10:33;101856.84;;;20.24;54.03
53550;BME280;67273;52.914;-0.982;2023-05-12T00:13:00;101854.31;;;20.22;53.88
53550;BME280;67273;52.914;-0.982;2023-05-12T00:15:25;101858.72;;;20.23;53.99
53550;BME280;67273;52.914;-0.982;2023-05-12T00:17:51;101867.97;;;20.22;53.99
53550;BME280;67273;52.914;-0.982;2023-05-12T00:20:18;101864.41;;;20.22;54.08
53550;BME280;67273;52.914;-0.982;2023-05-12T00:22:44;101869.00;;;20.21;54.08
53550;BME280;67273;52.914;-0.982;2023-05-12T00:25:10;101867.34;;;20.20;53.83
53550;BME280;67273;52.914;-0.982;2023-05-12T00:27:35;101873.63;;;20.21;53.82
53550;BME280;67273;52.914;-0.982;2023-05-12T00:30:01;101871.13;;;20.19;54.07
53550;BME280;67273;52.914;-0.982;2023-05-12T00:32:27;101884.78;;;20.19;53.77
53550;BME280;67273;52.914;-0.982;2023-05-12T00:34:52;101892.13;;;20.19;53.97
53550;BME280;67273;52.914;-0.982;2023-05-12T00:37:20;101886.88;;;20.17;53.85
53550;BME280;67273;52.914;-0.982;2023-05-12T00:39:46;101884.16;;;20.17;53.92
53550;BME280;67273;52.914;-0.982;2023-05-12T00:42:11;101887.94;;;20.16;53.84
53550;BME280;67273;52.914;-0.982;2023-05-12T00:44:37;101885.19;;;20.16;53.92
53550;BME280;67273;52.914;-0.982;2023-05-12T00:47:03;101890.88;;;20.14;53.79
53550;BME280;67273;52.914;-0.982;2023-05-12T00:49:30;101890.06;;;20.14;53.92
53550;BME280;67273;52.914;-0.982;2023-05-12T00:51:57;101878.31;;;20.13;53.85
53550;BME280;67273;52.914;-0.982;2023-05-12T00:54:25;101891.13;;;20.13;53.88
53550;BME280;67273;52.914;-0.982;2023-05-12T00:56:51;101888.41;;;20.13;53.89
53550;BME280;67273;52.914;-0.982;2023-05-12T00:59:18;101882.28;;;20.11;53.90
53550;BME280;67273;52.914;-0.982;2023-05-12T01:01:45;101885.88;;;20.11;53.94
53550;BME280;67273;52.914;-0.982;2023-05-12T01:04:12;101885.03;;;20.11;53.78
53550;BME280;67273;52.914;-0.982;2023-05-12T01:06:43;101890.47;;;20.11;53.88
53550;BME280;67273;52.914;-0.982;2023-05-12T01:09:11;101894.28;;;20.10;53.82
53550;BME280;67273;52.914;-0.982;2023-05-12T01:11:39;101897.84;;;20.10;54.01
53550;BME280;67273;52.914;-0.982;2023-05-12T01:14:05;101893.44;;;20.09;53.66
53550;BME280;67273;52.914;-0.982;2023-05-12T01:16:34;101903.50;;;20.09;53.67
53550;BME280;67273;52.914;-0.982;2023-05-12T01:19:05;101897.22;;;20.08;53.89
53550;BME280;67273;52.914;-0.982;2023-05-12T01:21:32;101899.13;;;20.08;53.77
53550;BME280;67273;52.914;-0.982;2023-05-12T01:24:03;101910.03;;;20.08;53.82
53550;BME280;67273;52.914;-0.982;2023-05-12T01:26:32;101904.78;;;20.06;53.81
53550;BME280;67273;52.914;-0.982;2023-05-12T01:29:00;101909.44;;;20.06;53.78
53550;BME280;67273;52.914;-0.982;2023-05-12T01:31:27;101914.03;;;20.05;53.83
53550;BME280;67273;52.914;-0.982;2023-05-12T01:33:54;101906.91;;;20.04;53.85
53550;BME280;67273;52.914;-0.982;2023-05-12T01:36:20;101912.38;;;20.04;53.91
53550;BME280;67273;52.914;-0.982;2023-05-12T01:38:46;101916.97;;;20.04;53.87
53550;BME280;67273;52.914;-0.982;2023-05-12T01:41:12;101918.88;;;20.03;53.88
53550;BME280;67273;52.914;-0.982;2023-05-12T01:43:39;101923.50;;;20.03;53.79
53550;BME280;67273;52.914;-0.982;2023-05-12T01:46:04;101919.94;;;20.02;53.79
53550;BME280;67273;52.914;-0.982;2023-05-12T01:48:30;101917.22;;;20.02;53.89
53550;BME280;67273;52.914;-0.982;2023-05-12T01:50:58;101930.00;;;20.02;53.91
53550;BME280;67273;52.914;-0.982;2023-05-12T01:53:24;101933.78;;;20.01;53.67
53550;BME280;67273;52.914;-0.982;2023-05-12T01:55:50;101937.56;;;20.00;53.83
53550;BME280;67273;52.914;-0.982;2023-05-12T01:58:16;101943.84;;;20.00;53.85
53550;BME280;67273;52.914;-0.982;2023-05-12T02:00:46;101947.66;;;19.99;53.73
53550;BME280;67273;52.914;-0.982;2023-05-12T02:03:16;101938.63;;;19.99;53.70
53550;BME280;67273;52.914;-0.982;2023-05-12T02:05:43;101949.75;;;19.97;53.88
53550;BME280;67273;52.914;-0.982;2023-05-12T02:08:12;101944.28;;;19.97;53.62
53550;BME280;67273;52.914;-0.982;2023-05-12T02:10:41;101954.34;;;19.97;53.91
53550;BME280;67273;52.914;-0.982;2023-05-12T02:13:09;101948.06;;;19.96;53.74
53550;BME280;67273;52.914;-0.982;2023-05-12T02:15:38;101961.72;;;19.96;53.38
53550;BME280;67273;52.914;-0.982;2023-05-12T02:18:08;101951.88;;;19.95;53.74
53550;BME280;67273;52.914;-0.982;2023-05-12T02:20:36;101962.78;;;19.95;53.71
53550;BME280;67273;52.914;-0.982;2023-05-12T02:23:04;101955.63;;;19.94;53.61
53550;BME280;67273;52.914;-0.982;2023-05-12T02:25:35;101959.41;;;19.93;53.71
53550;BME280;67273;52.914;-0.982;2023-05-12T02:28:03;101954.81;;;19.93;53.73
53550;BME280;67273;52.914;-0.982;2023-05-12T02:30:31;101964.03;;;19.92;53.65
53550;BME280;67273;52.914;-0.982;2023-05-12T02:32:58;101974.94;;;19.92;53.64
53550;BME280;67273;52.914;-0.982;2023-05-12T02:35:28;101972.44;;;19.91;53.99
53550;BME280;67273;52.914;-0.982;2023-05-12T02:37:56;101978.09;;;19.89;53.69
53550;BME280;67273;52.914;-0.982;2023-05-12T02:40:23;101980.81;;;19.89;53.63
53550;BME280;67273;52.914;-0.982;2023-05-12T02:42:49;101979.16;;;19.88;53.68
53550;BME280;67273;52.914;-0.982;2023-05-12T02:45:15;101982.72;;;19.89;53.60
53550;BME280;67273;52.914;-0.982;2023-05-12T02:47:42;101982.94;;;19.87;53.60
53550;BME280;67273;52.914;-0.982;2023-05-12T02:50:10;101987.56;;;19.87;53.44
53550;BME280;67273;52.914;-0.982;2023-05-12T02:52:39;101985.66;;;19.87;53.70
53550;BME280;67273;52.914;-0.982;2023-05-12T02:55:05;101991.31;;;19.86;53.74
53550;BME280;67273;52.914;-0.982;2023-05-12T02:57:31;101994.91;;;19.86;53.58
53550;BME280;67273;52.914;-0.982;2023-05-12T02:59:58;101996.78;;;19.86;53.57
53550;BME280;67273;52.914;-0.982;2023-05-12T03:02:24;101997.84;;;19.85;53.62
53550;BME280;67273;52.914;-0.982;2023-05-12T03:04:50;101999.72;;;19.84;53.60
53550;BME280;67273;52.914;-0.982;2023-05-12T03:07:15;101999.72;;;19.84;53.73
53550;BME280;67273;52.914;-0.982;2023-05-12T03:09:43;101998.06;;;19.83;53.63
53550;BME280;67273;52.914;-0.982;2023-05-12T03:12:09;102005.41;;;19.83;53.70
53550;BME280;67273;52.914;-0.982;2023-05-12T03:14:34;102002.69;;;19.83;53.54
53550;BME280;67273;52.914;-0.982;2023-05-12T03:17:00;102005.63;;;19.81;53.52
53550;BME280;67273;52.914;-0.982;2023-05-12T03:19:26;102000.16;;;19.81;53.56
53550;BME280;67273;52.914;-0.982;2023-05-12T03:21:55;102002.91;;;19.81;53.58
53550;BME280;67273;52.914;-0.982;2023-05-12T03:24:20;101999.31;;;19.81;53.44
53550;BME280;67273;52.914;-0.982;2023-05-12T03:26:47;102003.09;;;19.80;53.57
53550;BME280;67273;52.914;-0.982;2023-05-12T03:29:13;102002.28;;;19.79;53.59
53550;BME280;67273;52.914;-0.982;2023-05-12T03:31:40;101996.81;;;19.79;53.32
53550;BME280;67273;52.914;-0.982;2023-05-12T03:34:05;102006.03;;;19.78;53.63
53550;BME280;67273;52.914;-0.982;2023-05-12T03:36:32;102006.03;;;19.78;53.46
53550;BME280;67273;52.914;-0.982;2023-05-12T03:38:57;102004.34;;;19.77;53.49
53550;BME280;67273;52.914;-0.982;2023-05-12T03:41:23;102008.97;;;19.77;53.54
53550;BME280;67273;52.914;-0.982;2023-05-12T03:43:50;101999.13;;;19.75;53.57
53550;BME280;67273;52.914;-0.982;2023-05-12T03:46:16;102008.16;;;19.76;53.66
53550;BME280;67273;52.914;-0.982;2023-05-12T03:48:42;102008.16;;;19.76;53.55
53550;BME280;67273;52.914;-0.982;2023-05-12T03:51:07;102011.91;;;19.75;53.58
53550;BME280;67273;52.914;-0.982;2023-05-12T03:53:33;102005.63;;;19.74;53.58
53550;BME280;67273;52.914;-0.982;2023-05-12T03:56:03;102012.13;;;19.73;53.61
53550;BME280;67273;52.914;-0.982;2023-05-12T03:58:28;102014.00;;;19.73;53.36
53550;BME280;67273;52.914;-0.982;2023-05-12T04:00:56;102014.00;;;19.73;53.58
53550;BME280;67273;52.914;-0.982;2023-05-12T04:03:22;102012.34;;;19.72;53.49
53550;BME280;67273;52.914;-0.982;2023-05-12T04:05:48;102012.34;;;19.72;53.52
53550;BME280;67273;52.914;-0.982;2023-05-12T04:08:13;102023.25;;;19.72;53.53
53550;BME280;67273;52.914;-0.982;2023-05-12T04:10:39;102016.09;;;19.71;53.48
53550;BME280;67273;52.914;-0.982;2023-05-12T04:13:05;102029.72;;;19.71;53.57
53550;BME280;67273;52.914;-0.982;2023-05-12T04:15:32;102020.94;;;19.69;53.59
53550;BME280;67273;52.914;-0.982;2023-05-12T04:17:59;102018.19;;;19.69;53.49
53550;BME280;67273;52.914;-0.982;2023-05-12T04:20:27;102034.56;;;19.69;53.53
53550;BME280;67273;52.914;-0.982;2023-05-12T04:22:53;102024.69;;;19.68;53.49
53550;BME280;67273;52.914;-0.982;2023-05-12T04:25:18;102034.56;;;19.69;53.47
53550;BME280;67273;52.914;-0.982;2023-05-12T04:27:44;102033.94;;;19.67;53.48
53550;BME280;67273;52.914;-0.982;2023-05-12T04:30:10;102036.66;;;19.67;53.58
53550;BME280;67273;52.914;-0.982;2023-05-12T04:32:38;102038.53;;;19.66;53.49
53550;BME280;67273;52.914;-0.982;2023-05-12T04:35:07;102047.56;;;19.67;53.46
53550;BME280;67273;52.914;-0.982;2023-05-12T04:37:33;102052.16;;;19.66;53.50
53550;BME280;67273;52.914;-0.982;2023-05-12T04:39:59;102049.66;;;19.65;53.46
53550;BME280;67273;52.914;-0.982;2023-05-12T04:42:25;102058.69;;;19.65;53.37
53550;BME280;67273;52.914;-0.982;2023-05-12T04:44:51;102064.34;;;19.64;53.68
53550;BME280;67273;52.914;-0.982;2023-05-12T04:47:18;102063.28;;;19.65;53.48
53550;BME280;67273;52.914;-0.982;2023-05-12T04:49:43;102059.72;;;19.64;53.57
53550;BME280;67273;52.914;-0.982;2023-05-12T04:52:13;102067.91;;;19.64;53.62
53550;BME280;67273;52.914;-0.982;2023-05-12T04:54:39;102069.81;;;19.64;53.48
53550;BME280;67273;52.914;-0.982;2023-05-12T04:57:05;102065.38;;;19.63;53.53
53550;BME280;67273;52.914;-0.982;2023-05-12T04:59:31;102070.00;;;19.62;53.55
53550;BME280;67273;52.914;-0.982;2023-05-12T05:01:57;102071.91;;;19.62;53.52
53550;BME280;67273;52.914;-0.982;2023-05-12T05:04:23;102071.91;;;19.62;53.50
53550;BME280;67273;52.914;-0.982;2023-05-12T05:06:49;102076.50;;;19.61;53.41
53550;BME280;67273;52.914;-0.982;2023-05-12T05:09:16;102080.09;;;19.62;53.41
53550;BME280;67273;52.914;-0.982;2023-05-12T05:11:42;102081.13;;;19.61;53.39
53550;BME280;67273;52.914;-0.982;2023-05-12T05:14:08;102081.94;;;19.61;53.33
53550;BME280;67273;52.914;-0.982;2023-05-12T05:16:35;102092.03;;;19.61;53.29
53550;BME280;67273;52.914;-0.982;2023-05-12T05:19:01;102085.75;;;19.60;53.34
53550;BME280;67273;52.914;-0.982;2023-05-12T05:21:27;102094.75;;;19.61;53.34
53550;BME280;67273;52.914;-0.982;2023-05-12T05:23:53;102093.94;;;19.60;53.29
53550;BME280;67273;52.914;-0.982;2023-05-12T05:26:21;102096.84;;;19.59;53.17
53550;BME280;67273;52.914;-0.982;2023-05-12T05:28:49;102098.75;;;19.58;53.30
53550;BME280;67273;52.914;-0.982;2023-05-12T05:31:15;102099.59;;;19.59;53.35
53550;BME280;67273;52.914;-0.982;2023-05-12T05:33:41;102102.31;;;19.59;53.15
53550;BME280;67273;52.914;-0.982;2023-05-12T05:36:07;102103.34;;;19.57;53.28
53550;BME280;67273;52.914;-0.982;2023-05-12T05:38:33;102108.78;;;19.57;53.22
53550;BME280;67273;52.914;-0.982;2023-05-12T05:40:59;102116.97;;;19.57;53.17
53550;BME280;67273;52.914;-0.982;2023-05-12T05:43:27;102118.03;;;19.56;53.26
53550;BME280;67273;52.914;-0.982;2023-05-12T05:45:54;102124.31;;;19.57;53.19
53550;BME280;67273;52.914;-0.982;2023-05-12T05:48:22;102119.06;;;19.55;53.18
53550;BME280;67273;52.914;-0.982;2023-05-12T05:50:49;102120.97;;;19.55;53.20
53550;BME280;67273;52.914;-0.982;2023-05-12T05:53:15;102130.84;;;19.56;53.21
53550;BME280;67273;52.914;-0.982;2023-05-12T05:55:43;102135.44;;;19.55;53.06
53550;BME280;67273;52.914;-0.982;2023-05-12T05:58:09;102140.06;;;19.55;53.17
53550;BME280;67273;52.914;-0.982;2023-05-12T06:00:36;102139.22;;;19.54;53.09
53550;BME280;67273;52.914;-0.982;2023-05-12T06:03:02;102146.34;;;19.55;53.06
53550;BME280;67273;52.914;-0.982;2023-05-12T06:05:29;102144.25;;;19.57;53.15
53550;BME280;67273;52.914;-0.982;2023-05-12T06:07:55;102143.22;;;19.59;53.22
53550;BME280;67273;52.914;-0.982;2023-05-12T06:10:21;102144.66;;;19.61;53.01
53550;BME280;67273;52.914;-0.982;2023-05-12T06:12:47;102141.09;;;19.61;53.07
53550;BME280;67273;52.914;-0.982;2023-05-12T06:15:13;102151.81;;;19.62;53.02
53550;BME280;67273;52.914;-0.982;2023-05-12T06:17:40;102151.19;;;19.60;53.05
53550;BME280;67273;52.914;-0.982;2023-05-12T06:20:07;102152.00;;;19.61;52.97
53550;BME280;67273;52.914;-0.982;2023-05-12T06:22:33;102154.13;;;19.59;53.11
53550;BME280;67273;52.914;-0.982;2023-05-12T06:24:59;102167.53;;;19.60;52.99
53550;BME280;67273;52.914;-0.982;2023-05-12T06:27:25;102165.84;;;19.59;52.99
53550;BME280;67273;52.914;-0.982;2023-05-12T06:29:51;102165.03;;;19.59;53.08
53550;BME280;67273;52.914;-0.982;2023-05-12T06:32:17;102175.91;;;19.59;52.99
53550;BME280;67273;52.914;-0.982;2023-05-12T06:34:44;102173.00;;;19.60;53.08
53550;BME280;67273;52.914;-0.982;2023-05-12T06:37:09;102173.00;;;19.60;52.96
53550;BME280;67273;52.914;-0.982;2023-05-12T06:39:35;102172.38;;;19.58;53.01
53550;BME280;67273;52.914;-0.982;2023-05-12T06:42:02;102175.09;;;19.58;53.16
53550;BME280;67273;52.914;-0.982;2023-05-12T06:44:38;102174.22;;;19.57;52.88
53550;BME280;67273;52.914;-0.982;2023-05-12T06:47:04;102178.03;;;19.56;52.78
53550;BME280;67273;52.914;-0.982;2023-05-12T06:49:30;102175.28;;;19.56;53.01
53550;BME280;67273;52.914;-0.982;2023-05-12T06:52:01;102175.28;;;19.56;52.99
53550;BME280;67273;52.914;-0.982;2023-05-12T06:54:27;102178.03;;;19.56;52.90
53550;BME280;67273;52.914;-0.982;2023-05-12T06:56:52;102178.84;;;19.57;53.01
53550;BME280;67273;52.914;-0.982;2023-05-12T06:59:20;102178.03;;;19.56;52.88
53550;BME280;67273;52.914;-0.982;2023-05-12T07:01:48;102172.56;;;19.56;52.86
53550;BME280;67273;52.914;-0.982;2023-05-12T07:04:13;102178.03;;;19.56;52.98
53550;BME280;67273;52.914;-0.982;2023-05-12T07:06:39;102181.78;;;19.55;53.04
53550;BME280;67273;52.914;-0.982;2023-05-12T07:09:06;102184.09;;;19.59;53.22
53550;BME280;67273;52.914;-0.982;2023-05-12T07:11:32;102181.78;;;19.55;53.36
53550;BME280;67273;52.914;-0.982;2023-05-12T07:13:58;102183.88;;;19.53;54.74
53550;BME280;67273;52.914;-0.982;2023-05-12T07:16:24;102181.16;;;19.53;54.46
53550;BME280;67273;52.914;-0.982;2023-05-12T07:18:49;102189.34;;;19.53;55.65
53550;BME280;67273;52.914;-0.982;2023-05-12T07:21:15;102189.75;;;19.50;57.01
53550;BME280;67273;52.914;-0.982;2023-05-12T07:23:41;102193.13;;;19.52;56.09
53550;BME280;67273;52.914;-0.982;2023-05-12T07:26:08;102200.06;;;19.62;55.84
53550;BME280;67273;52.914;-0.982;2023-05-12T07:28:34;102200.28;;;19.67;55.55
53550;BME280;67273;52.914;-0.982;2023-05-12T07:31:01;102200.03;;;19.68;55.47
53550;BME280;67273;52.914;-0.982;2023-05-12T07:33:29;102200.28;;;19.73;57.10
53550;BME280;67273;52.914;-0.982;2023-05-12T07:35:55;102210.38;;;19.80;57.25
53550;BME280;67273;52.914;-0.982;2023-05-12T07:38:23;102201.56;;;19.78;56.65
53550;BME280;67273;52.914;-0.982;2023-05-12T07:40:50;102196.94;;;19.78;56.51
53550;BME280;67273;52.914;-0.982;2023-05-12T07:43:18;102203.22;;;19.79;56.70
53550;BME280;67273;52.914;-0.982;2023-05-12T07:45:45;102204.91;;;19.80;56.93
53550;BME280;67273;52.914;-0.982;2023-05-12T07:48:11;102215.63;;;19.81;56.99
53550;BME280;67273;52.914;-0.982;2023-05-12T07:50:37;102209.09;;;19.82;56.98
53550;BME280;67273;52.914;-0.982;2023-05-12T07:53:05;102206.16;;;19.84;57.03
53550;BME280;67273;52.914;-0.982;2023-05-12T07:55:31;102207.41;;;19.88;56.74
53550;BME280;67273;52.914;-0.982;2023-05-12T07:58:00;102209.94;;;19.89;56.89
53550;BME280;67273;52.914;-0.982;2023-05-12T08:00:29;102213.28;;;19.91;56.51
53550;BME280;67273;52.914;-0.982;2023-05-12T08:02:56;102212.47;;;19.98;56.57
53550;BME280;67273;52.914;-0.982;2023-05-12T08:05:23;102206.59;;;20.01;56.75
53550;BME280;67273;52.914;-0.982;2023-05-12T08:07:49;102209.53;;;20.06;56.53
53550;BME280;67273;52.914;-0.982;2023-05-12T08:10:16;102207.84;;;20.05;56.36
53550;BME280;67273;52.914;-0.982;2023-05-12T08:12:44;102215.81;;;20.00;56.75
53550;BME280;67273;52.914;-0.982;2023-05-12T08:15:11;102218.34;;;20.01;56.73
53550;BME280;67273;52.914;-0.982;2023-05-12T08:17:40;102212.25;;;19.99;56.98
53550;BME280;67273;52.914;-0.982;2023-05-12T08:20:06;102218.13;;;19.96;57.56
53550;BME280;67273;52.914;-0.982;2023-05-12T08:22:33;102214.56;;;19.96;58.12
53550;BME280;67273;52.914;-0.982;2023-05-12T08:24:59;102211.59;;;20.04;58.05
53550;BME280;67273;52.914;-0.982;2023-05-12T08:27:26;102222.72;;;20.09;57.90
53550;BME280;67273;52.914;-0.982;2023-05-12T08:29:54;102226.53;;;20.08;58.14
53550;BME280;67273;52.914;-0.982;2023-05-12T08:32:20;102218.53;;;20.06;57.62
53550;BME280;67273;52.914;-0.982;2023-05-12T08:34:47;102222.97;;;20.01;59.14
53550;BME280;67273;52.914;-0.982;2023-05-12T08:37:13;102227.97;;;20.04;59.63
53550;BME280;67273;52.914;-0.982;2023-05-12T08:39:39;102221.69;;;20.10;58.64
53550;BME280;67273;52.914;-0.982;2023-05-12T08:42:13;102223.56;;;20.16;58.11
53550;BME280;67273;52.914;-0.982;2023-05-12T08:44:47;102221.50;;;20.18;58.04
53550;BME280;67273;52.914;-0.982;2023-05-12T08:47:17;102231.13;;;20.21;57.96
53550;BME280;67273;52.914;-0.982;2023-05-12T08:49:43;102230.09;;;20.22;57.89
53550;BME280;67273;52.914;-0.982;2023-05-12T08:52:11;102230.91;;;20.22;57.74
53550;BME280;67273;52.914;-0.982;2023-05-12T08:54:42;102234.28;;;20.24;57.64
53550;BME280;67273;52.914;-0.982;2023-05-12T08:57:12;102233.00;;;20.27;57.53
53550;BME280;67273;52.914;-0.982;2023-05-12T08:59:43;102234.47;;;20.29;56.76
53550;BME280;67273;52.914;-0.982;2023-05-12T09:02:12;102241.84;;;20.16;56.79
53550;BME280;67273;52.914;-0.982;2023-05-12T09:04:38;102237.22;;;20.16;58.26
53550;BME280;67273;52.914;-0.982;2023-05-12T09:07:04;102242.47;;;20.24;58.22
53550;BME280;67273;52.914;-0.982;2023-05-12T09:09:38;102242.66;;;20.29;57.88
53550;BME280;67273;52.914;-0.982;2023-05-12T09:12:11;102246.03;;;20.31;57.72
53550;BME280;67273;52.914;-0.982;2023-05-12T09:14:37;102242.25;;;20.32;57.77
53550;BME280;67273;52.914;-0.982;2023-05-12T09:17:05;102248.97;;;20.37;57.41
53550;BME280;67273;52.914;-0.982;2023-05-12T09:19:31;102250.66;;;20.38;57.36
53550;BME280;67273;52.914;-0.982;2023-05-12T09:21:59;102243.09;;;20.40;57.33
53550;BME280;67273;52.914;-0.982;2023-05-12T09:24:32;102252.94;;;20.41;57.14
53550;BME280;67273;52.914;-0.982;2023-05-12T09:27:00;102252.72;;;20.42;57.15
53550;BME280;67273;52.914;-0.982;2023-05-12T09:29:27;102248.75;;;20.45;57.22
53550;BME280;67273;52.914;-0.982;2023-05-12T09:31:55;102254.22;;;20.45;57.22
53550;BME280;67273;52.914;-0.982;2023-05-12T09:34:27;102258.59;;;20.46;57.00
53550;BME280;67273;52.914;-0.982;2023-05-12T09:36:56;102261.13;;;20.47;56.81
53550;BME280;67273;52.914;-0.982;2023-05-12T09:39:22;102256.50;;;20.48;57.04
53550;BME280;67273;52.914;-0.982;2023-05-12T09:41:50;102261.94;;;20.48;56.87
53550;BME280;67273;52.914;-0.982;2023-05-12T09:44:23;102249.38;;;20.47;56.61
53550;BME280;67273;52.914;-0.982;2023-05-12T09:46:49;102255.25;;;20.50;56.70
53550;BME280;67273;52.914;-0.982;2023-05-12T09:49:20;102247.06;;;20.50;56.72
53550;BME280;67273;52.914;-0.982;2023-05-12T09:51:55;102252.31;;;20.52;56.65
53550;BME280;67273;52.914;-0.982;2023-05-12T09:54:24;102253.97;;;20.53;56.50
53550;BME280;67273;52.914;-0.982;2023-05-12T09:56:56;102253.13;;;20.52;56.22
53550;BME280;67273;52.914;-0.982;2023-05-12T09:59:29;102252.91;;;20.54;56.08
53550;BME280;67273;52.914;-0.982;2023-05-12T10:01:59;102251.44;;;20.51;55.79
53550;BME280;67273;52.914;-0.982;2023-05-12T10:04:27;102256.50;;;20.48;55.87
53550;BME280;67273;52.914;-0.982;2023-05-12T10:07:03;102252.31;;;20.45;55.80
53550;BME280;67273;52.914;-0.982;2023-05-12T10:09:31;102253.34;;;20.44;55.73
53550;BME280;67273;52.914;-0.982;2023-05-12T10:12:03;102256.28;;;20.43;55.81
53550;BME280;67273;52.914;-0.982;2023-05-12T10:14:34;102258.22;;;20.29;56.08
53550;BME280;67273;52.914;-0.982;2023-05-12T10:17:02;102264.06;;;20.12;58.53
53550;BME280;67273;52.914;-0.982;2023-05-12T10:19:32;102263.03;;;20.07;58.63
53550;BME280;67273;52.914;-0.982;2023-05-12T10:22:03;102263.25;;;20.05;59.05
53550;BME280;67273;52.914;-0.982;2023-05-12T10:24:32;102262.00;;;20.01;58.96
53550;BME280;67273;52.914;-0.982;2023-05-12T10:27:00;102257.38;;;20.22;58.74
53550;BME280;67273;52.914;-0.982;2023-05-12T10:29:30;102257.97;;;20.44;57.79
53550;BME280;67273;52.914;-0.982;2023-05-12T10:31:59;102257.75;;;20.52;57.39
53550;BME280;67273;52.914;-0.982;2023-05-12T10:34:31;102266.78;;;20.59;57.52
53550;BME280;67273;52.914;-0.982;2023-05-12T10:36:58;102260.25;;;20.60;57.53
53550;BME280;67273;52.914;-0.982;2023-05-12T10:39:28;102256.50;;;20.61;57.59
53550;BME280;67273;52.914;-0.982;2023-05-12T10:42:05;102255.84;;;20.66;57.41
53550;BME280;67273;52.914;-0.982;2023-05-12T10:44:33;102257.75;;;20.52;56.23
53550;BME280;67273;52.914;-0.982;2023-05-12T10:47:11;102259.88;;;19.97;56.91
53550;BME280;67273;52.914;-0.982;2023-05-12T10:49:42;102256.31;;;19.89;57.32
53550;BME280;67273;52.914;-0.982;2023-05-12T10:52:11;102251.91;;;20.08;57.01
53550;BME280;67273;52.914;-0.982;2023-05-12T10:54:40;102252.75;;;20.09;56.80
53550;BME280;67273;52.914;-0.982;2023-05-12T10:57:12;102251.50;;;20.05;57.76
53550;BME280;67273;52.914;-0.982;2023-05-12T10:59:47;102254.84;;;20.07;57.36
53550;BME280;67273;52.914;-0.982;2023-05-12T11:02:18;102256.13;;;20.04;57.89
53550;BME280;67273;52.914;-0.982;2023-05-12T11:04:50;102252.97;;;20.01;57.74
53550;BME280;67273;52.914;-0.982;2023-05-12T11:07:20;102257.38;;;20.15;58.95
53550;BME280;67273;52.914;-0.982;2023-05-12T11:09:47;102258.19;;;20.36;58.27
53550;BME280;67273;52.914;-0.982;2023-05-12T11:12:13;102258.19;;;20.42;57.94
53550;BME280;67273;52.914;-0.982;2023-05-12T11:14:42;102260.50;;;20.45;57.59
53550;BME280;67273;52.914;-0.982;2023-05-12T11:17:11;102265.75;;;20.47;57.48
53550;BME280;67273;52.914;-0.982;2023-05-12T11:19:45;102272.03;;;20.47;57.24
53550;BME280;67273;52.914;-0.982;2023-05-12T11:22:16;102256.50;;;20.48;57.24
53550;BME280;67273;52.914;-0.982;2023-05-12T11:24:47;102263.63;;;20.49;56.87
53550;BME280;67273;52.914;-0.982;2023-05-12T11:27:16;102265.53;;;20.48;56.75
53550;BME280;67273;52.914;-0.982;2023-05-12T11:29:54;102268.03;;;20.57;56.46
53550;BME280;67273;52.914;-0.982;2023-05-12T11:32:22;102270.78;;;20.63;56.24
53550;BME280;67273;52.914;-0.982;2023-05-12T11:34:50;102264.91;;;20.66;56.38
53550;BME280;67273;52.914;-0.982;2023-05-12T11:37:17;102273.72;;;20.68;56.36
53550;BME280;67273;52.914;-0.982;2023-05-12T11:39:49;102274.97;;;20.73;56.47
53550;BME280;67273;52.914;-0.982;2023-05-12T11:42:18;102267.38;;;20.75;56.26
53550;BME280;67273;52.914;-0.982;2023-05-12T11:44:48;102265.72;;;20.74;56.32
53550;BME280;67273;52.914;-0.982;2023-05-12T11:47:18;102269.91;;;20.76;56.20
53550;BME280;67273;52.914;-0.982;2023-05-12T11:49:46;102275.38;;;20.76;56.39
53550;BME280;67273;52.914;-0.982;2023-05-12T11:52:16;102274.53;;;20.76;56.28
53550;BME280;67273;52.914;-0.982;2023-05-12T11:54:48;102278.72;;;20.78;56.24
53550;BME280;67273;52.914;-0.982;2023-05-12T11:57:25;102287.78;;;20.39;56.70
53550;BME280;67273;52.914;-0.982;2023-05-12T11:59:57;102278.34;;;20.21;57.59
53550;BME280;67273;52.914;-0.982;2023-05-12T12:02:25;102284.44;;;20.23;57.99
53550;BME280;67273;52.914;-0.982;2023-05-12T12:04:54;102283.78;;;20.55;56.92
53550;BME280;67273;52.914;-0.982;2023-05-12T12:07:31;102282.94;;;20.67;56.69
53550;BME280;67273;52.914;-0.982;2023-05-12T12:09:58;102288.00;;;20.70;56.68
53550;BME280;67273;52.914;-0.982;2023-05-12T12:12:36;102284.22;;;20.72;56.54
53550;BME280;67273;52.914;-0.982;2023-05-12T12:15:05;102288.81;;;20.78;56.14
53550;BME280;67273;52.914;-0.982;2023-05-12T12:17:34;102282.97;;;20.41;57.14
53550;BME280;67273;52.914;-0.982;2023-05-12T12:20:02;102281.88;;;20.55;57.10
53550;BME280;67273;52.914;-0.982;2023-05-12T12:22:32;102291.75;;;20.69;56.83
53550;BME280;67273;52.914;-0.982;2023-05-12T12:25:01;102282.72;;;20.76;56.75
53550;BME280;67273;52.914;-0.982;2023-05-12T12:27:28;102281.25;;;20.80;56.63
53550;BME280;67273;52.914;-0.982;2023-05-12T12:29:55;102286.28;;;20.83;56.56
53550;BME280;67273;52.914;-0.982;2023-05-12T12:32:23;102289.63;;;20.85;56.31
53550;BME280;67273;52.914;-0.982;2023-05-12T12:34:49;102282.72;;;20.76;56.16
53550;BME280;67273;52.914;-0.982;2023-05-12T12:37:18;102296.38;;;20.82;56.56
53550;BME280;67273;52.914;-0.982;2023-05-12T12:39:48;102291.13;;;20.87;56.33
53550;BME280;67273;52.914;-0.982;2023-05-12T12:42:16;102293.84;;;20.87;56.36